Time;durP1;ratioP1;P1;durP2;ratioP2;P2;SDS_P1;SDS_P2;PMS_P1;PMS_P2;Temp;Humidity;BMP_temperature;BMP_pressure;BME280_temperature;BME280_humidity;BME280_pressure;Samples;Min_cycle;Max_cycle;Signal;HPM_P1;HPM_P2
2023/12/09 00:00:08;;;;;;;26.67;13.40;;;;;;;1.44;66.26;100925.84;4975361;28;103894;-56
2023/12/09 00:02:33;;;;;;;28.53;13.70;;;;;;;1.47;66.56;100921.47;4973518;28;97305;-57
2023/12/09 00:04:58;;;;;;;24.23;12.43;;;;;;;1.47;66.46;100919.50;4974680;28;97108;-57
2023/12/09 00:07:24;;;;;;;39.60;14.33;;;;;;;1.49;66.46;100924.50;4976188;28;97353;-58
2023/12/09 00:09:49;;;;;;;23.77;12.47;;;;;;;1.48;66.37;100923.75;4975395;28;97771;-56
2023/12/09 00:12:14;;;;;;;30.63;13.80;;;;;;;1.48;66.60;100921.00;4974363;28;109422;-57
2023/12/09 00:14:40;;;;;;;29.70;13.37;;;;;;;1.49;66.69;100927.22;4975700;28;102898;-57
2023/12/09 00:17:05;;;;;;;30.03;13.93;;;;;;;1.48;66.46;100921.00;4976093;28;101403;-57
2023/12/09 00:19:30;;;;;;;28.57;13.50;;;;;;;1.50;66.37;100917.88;4975396;28;108632;-57
2023/12/09 00:21:55;;;;;;;26.20;12.87;;;;;;;1.52;66.81;100915.44;4974423;28;114013;-57
2023/12/09 00:24:21;;;;;;;49.77;15.00;;;;;;;1.52;66.24;100918.91;4975191;28;97055;-57
2023/12/09 00:26:46;;;;;;;36.40;14.00;;;;;;;1.50;66.27;100918.59;4975114;28;101185;-57
2023/12/09 00:29:12;;;;;;;33.30;14.43;;;;;;;1.50;66.55;100923.31;4972807;28;103569;-59
2023/12/09 00:31:37;;;;;;;35.23;13.93;;;;;;;1.51;66.45;100924.81;4977095;28;97276;-57
2023/12/09 00:34:02;;;;;;;42.50;14.47;;;;;;;1.50;66.64;100918.59;4976862;28;97228;-58
2023/12/09 00:36:28;;;;;;;27.50;13.03;;;;;;;1.51;66.66;100922.09;4976094;28;96741;-57
2023/12/09 00:38:53;;;;;;;36.33;14.00;;;;;;;1.51;66.48;100919.38;4977835;28;102467;-56
2023/12/09 00:41:18;;;;;;;26.67;13.60;;;;;;;1.54;66.75;100919.25;4978597;28;97356;-57
2023/12/09 00:43:44;;;;;;;28.33;13.67;;;;;;;1.55;66.67;100920.75;4977950;28;101829;-57
2023/12/09 00:46:09;;;;;;;33.40;14.47;;;;;;;1.56;66.85;100925.00;4974738;28;97593;-58
2023/12/09 00:48:34;;;;;;;35.27;13.13;;;;;;;1.57;66.59;100923.03;4973367;28;97885;-57
2023/12/09 00:51:00;;;;;;;22.13;12.10;;;;;;;1.56;67.04;100930.47;4974424;28;105698;-57
2023/12/09 00:53:25;;;;;;;43.60;14.97;;;;;;;1.56;66.86;100938.66;4977866;28;97227;-58
2023/12/09 00:55:50;;;;;;;31.03;13.80;;;;;;;1.57;66.84;100915.63;4973892;28;97415;-57
2023/12/09 00:58:15;;;;;;;30.57;12.83;;;;;;;1.58;66.77;100916.38;4973423;28;105654;-57
2023/12/09 01:00:41;;;;;;;29.50;14.10;;;;;;;1.60;66.73;100916.69;4974527;28;97448;-57
2023/12/09 01:03:06;;;;;;;33.67;12.40;;;;;;;1.63;66.78;100911.09;4974802;28;97308;-57
2023/12/09 01:05:31;;;;;;;24.07;12.90;;;;;;;1.64;66.80;100920.03;4975776;28;97266;-56
2023/12/09 01:07:57;;;;;;;57.50;15.13;;;;;;;1.64;66.85;100925.47;4979239;28;97241;-56
2023/12/09 01:10:22;;;;;;;36.83;13.60;;;;;;;1.62;66.78;100930.63;4979809;28;96793;-57
2023/12/09 01:12:47;;;;;;;32.70;14.63;;;;;;;1.62;66.66;100936.09;4992160;28;97418;-57
2023/12/09 01:15:14;;;;;;;36.03;13.20;;;;;;;1.61;66.79;100926.41;4980302;28;96974;-57
2023/12/09 01:17:39;;;;;;;33.77;14.27;;;;;;;1.61;67.01;100938.03;4978585;28;98690;-57
2023/12/09 01:20:05;;;;;;;31.73;13.07;;;;;;;1.60;67.12;100933.06;4974862;28;104908;-58
2023/12/09 01:22:30;;;;;;;27.37;13.00;;;;;;;1.59;67.14;100937.72;4978527;28;96699;-57
2023/12/09 01:24:55;;;;;;;34.90;14.10;;;;;;;1.59;66.81;100929.56;4978148;28;100182;-58
2023/12/09 01:27:21;;;;;;;25.10;12.07;;;;;;;1.59;67.05;100932.28;4989955;28;104372;-57
2023/12/09 01:29:46;;;;;;;28.73;12.50;;;;;;;1.61;66.69;100929.88;4976112;28;96525;-57
2023/12/09 01:32:11;;;;;;;27.30;12.73;;;;;;;1.62;67.07;100941.53;4980069;28;97194;-57
2023/12/09 01:34:39;;;;;;;26.80;11.87;;;;;;;1.61;66.47;100940.03;4978216;28;97063;-58
2023/12/09 01:37:05;;;;;;;26.63;13.80;;;;;;;1.55;66.92;100939.06;4978291;28;97388;-57
2023/12/09 01:39:30;;;;;;;25.40;12.33;;;;;;;1.64;66.72;100933.66;4978210;28;97287;-58
2023/12/09 01:41:56;;;;;;;27.03;12.63;;;;;;;1.63;66.88;100932.91;4981035;28;97047;-57
2023/12/09 01:44:21;;;;;;;33.80;12.20;;;;;;;1.66;67.04;100936.72;4978878;28;96758;-58
2023/12/09 01:46:47;;;;;;;29.00;11.97;;;;;;;1.66;66.71;100942.94;4979306;28;98553;-57
2023/12/09 01:49:13;;;;;;;27.43;13.30;;;;;;;1.69;66.82;100933.84;4978281;28;97134;-57
2023/12/09 01:51:40;;;;;;;30.53;11.97;;;;;;;1.72;66.84;100937.66;4979377;28;96975;-57
2023/12/09 01:54:06;;;;;;;29.13;13.63;;;;;;;1.74;66.92;100940.69;4978950;28;97011;-58
2023/12/09 01:56:32;;;;;;;24.80;11.80;;;;;;;1.75;67.03;100934.78;4978931;28;97264;-57
2023/12/09 01:58:57;;;;;;;33.83;12.63;;;;;;;1.79;67.12;100931.91;4980212;28;97339;-58
2023/12/09 02:01:25;;;;;;;24.57;12.20;;;;;;;1.78;67.08;100930.41;4979051;28;97229;-57
2023/12/09 02:03:51;;;;;;;59.90;15.27;;;;;;;1.82;66.75;100931.03;4976132;28;97073;-57
2023/12/09 02:06:16;;;;;;;51.40;13.10;;;;;;;1.80;66.76;100934.22;4979448;28;97697;-57
2023/12/09 02:08:42;;;;;;;27.43;12.30;;;;;;;1.82;66.84;100920.88;4978636;28;96624;-57
2023/12/09 02:11:24;;;;;;;27.10;12.83;;;;;;;1.85;66.80;100930.13;4978159;28;97787;-58
2023/12/09 02:13:52;;;;;;;28.87;12.30;;;;;;;1.85;66.94;100930.13;4977563;28;98912;-58
2023/12/09 02:16:26;;;;;;;34.60;12.63;;;;;;;1.88;66.79;100926.50;4979336;28;97422;-58
2023/12/09 02:18:52;;;;;;;38.87;13.00;;;;;;;1.85;66.78;100921.19;4976896;28;98481;-58
2023/12/09 02:21:17;;;;;;;32.57;12.90;;;;;;;1.84;66.69;100920.41;4979078;28;97050;-56
2023/12/09 02:23:42;;;;;;;22.87;12.30;;;;;;;1.83;67.03;100925.13;4977343;28;96974;-57
2023/12/09 02:26:15;;;;;;;46.40;12.80;;;;;;;1.83;67.00;100918.88;4977667;28;97347;-57
2023/12/09 02:28:49;;;;;;;31.03;13.13;;;;;;;1.83;67.02;100919.66;4975700;28;99098;-57
2023/12/09 02:31:23;;;;;;;41.20;13.07;;;;;;;1.83;66.85;100913.44;4979229;28;96708;-57
2023/12/09 02:33:49;;;;;;;22.57;10.90;;;;;;;1.83;67.13;100911.47;4976785;28;96758;-57
2023/12/09 02:36:18;;;;;;;61.13;14.50;;;;;;;1.84;67.06;100917.69;4976458;28;98132;-58
2023/12/09 02:38:45;;;;;;;26.93;12.23;;;;;;;1.84;66.88;100925.88;4976948;28;98532;-58
2023/12/09 02:41:11;;;;;;;24.83;13.00;;;;;;;1.88;66.73;100921.03;4977674;28;97038;-57
2023/12/09 02:43:36;;;;;;;24.03;11.80;;;;;;;1.88;66.73;100915.59;4976817;28;97044;-58
2023/12/09 02:46:02;;;;;;;24.20;11.60;;;;;;;1.87;66.80;100916.81;4978115;28;96718;-58
2023/12/09 02:48:27;;;;;;;23.80;11.90;;;;;;;1.91;67.03;100916.66;4978545;28;97338;-57
2023/12/09 02:50:53;;;;;;;19.20;10.33;;;;;;;1.91;66.64;100906.50;4975689;28;97188;-58
2023/12/09 02:53:18;;;;;;;21.90;11.37;;;;;;;1.93;67.34;100915.00;4974200;28;97412;-58
2023/12/09 02:55:43;;;;;;;29.07;13.10;;;;;;;1.94;67.14;100911.06;4976792;28;97692;-59
2023/12/09 02:58:09;;;;;;;32.50;12.47;;;;;;;1.96;66.93;100916.81;4976634;28;102220;-57
2023/12/09 03:00:34;;;;;;;29.50;13.73;;;;;;;1.98;66.83;100911.69;4974682;28;96922;-57
2023/12/09 03:03:00;;;;;;;31.30;12.10;;;;;;;2.00;66.62;100917.47;4976059;28;96988;-57
2023/12/09 03:05:26;;;;;;;29.17;12.13;;;;;;;2.00;67.13;100909.28;4976637;28;97198;-57
2023/12/09 03:07:51;;;;;;;40.73;11.73;;;;;;;2.04;66.84;100911.84;4977238;28;103028;-58
2023/12/09 03:10:17;;;;;;;31.47;10.93;;;;;;;2.05;66.86;100908.66;4975103;28;97087;-58
2023/12/09 03:12:42;;;;;;;30.73;11.23;;;;;;;2.08;66.92;100907.75;4977033;28;97061;-58
2023/12/09 03:15:08;;;;;;;41.47;11.93;;;;;;;2.10;67.24;100908.06;4975193;28;110042;-57
2023/12/09 03:17:34;;;;;;;29.93;10.70;;;;;;;2.13;67.21;100907.19;4978037;28;97127;-58
2023/12/09 03:20:00;;;;;;;63.10;11.97;;;;;;;2.15;66.86;100906.72;4997088;22;97100;-53
2023/12/09 03:22:25;;;;;;;42.90;11.23;;;;;;;2.15;67.29;100895.81;4996706;28;97368;-53
2023/12/09 03:24:50;;;;;;;18.93;10.07;;;;;;;2.13;66.95;100888.06;4998193;28;96957;-53
2023/12/09 03:27:16;;;;;;;24.23;10.47;;;;;;;2.13;66.87;100892.75;4996255;28;108496;-53
2023/12/09 03:29:41;;;;;;;31.23;11.10;;;;;;;2.14;67.21;100897.00;4995297;28;97156;-53
2023/12/09 03:32:06;;;;;;;48.37;10.50;;;;;;;2.15;66.99;100893.84;4993685;28;96764;-53
2023/12/09 03:34:32;;;;;;;25.00;11.07;;;;;;;2.16;67.08;100889.88;4995375;28;109985;-53
2023/12/09 03:36:57;;;;;;;42.70;10.07;;;;;;;2.18;67.19;100884.72;4994791;28;101760;-53
2023/12/09 03:39:22;;;;;;;16.03;9.87;;;;;;;2.19;67.16;100890.94;4995797;28;96849;-53
2023/12/09 03:41:47;;;;;;;22.07;10.57;;;;;;;2.20;67.14;100895.94;4998065;28;97374;-53
2023/12/09 03:44:13;;;;;;;14.40;9.77;;;;;;;2.21;67.34;100880.34;4997504;28;97525;-53
2023/12/09 03:46:38;;;;;;;25.30;9.07;;;;;;;2.22;66.94;100877.16;5007188;27;101013;-53
2023/12/09 03:49:03;;;;;;;37.73;10.43;;;;;;;2.24;66.95;100877.47;4993616;28;96706;-53
2023/12/09 03:51:29;;;;;;;23.47;10.13;;;;;;;2.22;67.12;100877.16;4995342;28;97561;-53
2023/12/09 03:53:54;;;;;;;26.00;8.73;;;;;;;2.23;67.17;100875.94;4994728;28;97254;-53
2023/12/09 03:56:21;;;;;;;44.43;10.37;;;;;;;2.25;67.01;100875.50;4996057;28;97242;-53
2023/12/09 03:58:47;;;;;;;32.80;9.83;;;;;;;2.26;66.88;100869.59;4993380;28;97001;-53
2023/12/09 04:01:12;;;;;;;62.50;10.57;;;;;;;2.28;67.02;100866.41;4996911;28;97076;-53
2023/12/09 04:03:38;;;;;;;41.03;10.63;;;;;;;2.28;67.40;100863.66;4995476;28;96599;-53
2023/12/09 04:06:05;;;;;;;44.67;10.33;;;;;;;2.28;67.18;100867.16;4996517;28;97188;-53
2023/12/09 04:08:30;;;;;;;27.67;9.30;;;;;;;2.30;67.23;100869.44;4996135;28;96735;-53
2023/12/09 04:10:56;;;;;;;70.33;11.00;;;;;;;2.28;67.19;100858.97;4992859;28;97094;-53
2023/12/09 04:13:21;;;;;;;47.87;10.97;;;;;;;2.29;67.38;100852.28;4994059;28;97558;-52
2023/12/09 04:15:47;;;;;;;21.33;8.80;;;;;;;2.28;67.22;100858.97;4994432;28;96796;-53
2023/12/09 04:18:12;;;;;;;14.93;8.43;;;;;;;2.29;67.21;100851.53;4994606;28;96914;-53
2023/12/09 04:20:38;;;;;;;13.80;8.60;;;;;;;2.30;66.96;100858.50;4997793;28;97639;-53
2023/12/09 04:23:04;;;;;;;25.30;9.03;;;;;;;2.30;67.34;100853.81;4997629;28;96854;-53
2023/12/09 04:25:30;;;;;;;27.03;8.73;;;;;;;2.31;67.18;100860.78;4998250;28;97036;-53
2023/12/09 04:27:55;;;;;;;16.50;7.83;;;;;;;2.31;67.01;100860.78;4997510;28;97051;-53
2023/12/09 04:30:22;;;;;;;13.77;8.00;;;;;;;2.30;67.18;100864.75;5001371;28;97275;-53
2023/12/09 04:32:47;;;;;;;38.77;8.90;;;;;;;2.32;67.38;100858.81;4994981;28;96821;-53
2023/12/09 04:35:13;;;;;;;20.90;8.17;;;;;;;2.30;67.16;100863.97;4998831;28;97053;-53
2023/12/09 04:37:38;;;;;;;49.50;9.20;;;;;;;2.30;66.96;100853.81;4996283;28;96824;-53
2023/12/09 04:40:05;;;;;;;20.17;8.43;;;;;;;2.31;67.04;100854.59;4995678;28;103618;-53
2023/12/09 04:42:30;;;;;;;40.17;9.10;;;;;;;2.32;67.46;100861.53;4998537;28;97570;-53
2023/12/09 04:44:55;;;;;;;16.17;8.07;;;;;;;2.32;67.15;100850.63;4999768;28;97339;-53
2023/12/09 04:47:21;;;;;;;17.90;7.23;;;;;;;2.32;67.23;100856.09;5000569;28;98852;-53
2023/12/09 04:49:46;;;;;;;31.47;7.77;;;;;;;2.32;67.46;100848.66;5002702;28;97151;-53
2023/12/09 04:52:12;;;;;;;26.40;7.57;;;;;;;2.32;67.23;100845.94;4999957;28;97471;-52
2023/12/09 04:54:37;;;;;;;13.67;7.77;;;;;;;2.32;67.45;100845.94;4998944;28;97162;-53
2023/12/09 04:57:02;;;;;;;17.93;7.37;;;;;;;2.33;67.39;100838.50;4994449;28;97005;-53
2023/12/09 04:59:28;;;;;;;28.00;7.33;;;;;;;2.34;67.46;100842.78;4999115;28;96997;-53
2023/12/09 05:01:53;;;;;;;19.90;7.93;;;;;;;2.35;67.22;100838.84;4998452;28;104684;-52
2023/12/09 05:04:19;;;;;;;21.23;7.40;;;;;;;2.35;67.31;100834.13;4996836;28;98481;-52
2023/12/09 05:06:45;;;;;;;10.40;7.30;;;;;;;2.34;67.22;100835.34;4999556;28;97620;-52
2023/12/09 05:09:11;;;;;;;8.87;6.87;;;;;;;2.36;67.33;100824.72;4997080;28;96921;-52
2023/12/09 05:11:36;;;;;;;24.13;7.83;;;;;;;2.38;67.14;100829.72;4997370;28;97028;-53
2023/12/09 05:14:02;;;;;;;38.03;7.97;;;;;;;2.38;67.06;100833.22;4995737;28;97948;-53
2023/12/09 05:16:27;;;;;;;15.30;7.40;;;;;;;2.39;67.16;100829.28;4997454;28;96729;-53
2023/12/09 05:18:53;;;;;;;22.20;7.77;;;;;;;2.39;67.19;100831.25;5000456;28;97101;-52
2023/12/09 05:21:19;;;;;;;17.67;7.20;;;;;;;2.40;66.99;100828.06;4999739;28;97339;-53
2023/12/09 05:23:46;;;;;;;16.60;7.70;;;;;;;2.40;67.19;100830.78;4999159;28;97786;-53
2023/12/09 05:26:23;;;;;;;11.70;7.83;;;;;;;2.42;67.25;100833.81;5001264;28;97308;-53
2023/12/09 05:28:49;;;;;;;24.27;7.77;;;;;;;2.42;67.18;100833.81;4997573;28;96778;-53
2023/12/09 05:31:15;;;;;;;38.53;8.13;;;;;;;2.44;67.52;100836.13;4998324;28;97707;-52
2023/12/09 05:33:40;;;;;;;38.67;9.50;;;;;;;2.44;67.10;100838.84;4999712;28;97349;-53
2023/12/09 05:36:06;;;;;;;34.20;9.17;;;;;;;2.42;67.33;100831.09;4997658;28;99209;-53
2023/12/09 05:38:31;;;;;;;23.33;8.63;;;;;;;2.42;67.61;100828.34;5000865;28;96751;-53
2023/12/09 05:40:57;;;;;;;21.30;7.47;;;;;;;2.42;67.17;100831.09;4996829;28;98664;-53
2023/12/09 05:43:22;;;;;;;9.97;6.50;;;;;;;2.44;67.18;100834.13;4998291;28;109797;-53
2023/12/09 05:45:47;;;;;;;23.80;8.20;;;;;;;2.43;67.13;100831.84;4998071;28;101568;-53
2023/12/09 05:48:12;;;;;;;17.20;7.23;;;;;;;2.43;67.27;100827.16;4999057;28;97191;-53
2023/12/09 05:50:38;;;;;;;21.90;7.47;;;;;;;2.44;67.29;100836.13;4999953;28;102789;-52
2023/12/09 05:53:03;;;;;;;10.03;6.40;;;;;;;2.43;67.05;100826.41;4997057;28;105164;-53
2023/12/09 05:55:28;;;;;;;14.40;8.17;;;;;;;2.42;67.21;100831.09;4999894;28;97049;-53
2023/12/09 05:57:54;;;;;;;21.90;7.67;;;;;;;2.44;67.12;100827.94;5000766;28;97128;-52
2023/12/09 06:00:19;;;;;;;17.37;7.93;;;;;;;2.44;67.11;100825.94;4996845;28;97264;-52
2023/12/09 06:02:45;;;;;;;21.00;7.07;;;;;;;2.45;67.17;100827.47;4997511;28;98475;-53
2023/12/09 06:05:10;;;;;;;48.43;8.10;;;;;;;2.47;67.41;100827.75;4999937;28;96741;-53
2023/12/09 06:07:35;;;;;;;20.83;6.73;;;;;;;2.46;67.21;100828.97;4999571;28;97251;-53
2023/12/09 06:10:01;;;;;;;12.10;6.53;;;;;;;2.47;67.17;100835.19;4998366;28;110534;-53
2023/12/09 06:12:26;;;;;;;25.23;7.77;;;;;;;2.48;67.15;100828.53;4998045;28;97008;-53
2023/12/09 06:14:51;;;;;;;14.20;6.00;;;;;;;2.46;67.11;100820.03;4997550;28;96951;-53
2023/12/09 06:17:17;;;;;;;13.47;6.37;;;;;;;2.46;67.12;100818.03;4996921;28;96826;-52
2023/12/09 06:19:43;;;;;;;38.50;7.50;;;;;;;2.46;67.18;100812.56;4997530;28;98645;-53
2023/12/09 06:22:08;;;;;;;26.40;7.40;;;;;;;2.46;67.09;100812.56;4995541;28;96754;-53
2023/12/09 06:24:33;;;;;;;12.63;7.73;;;;;;;2.47;67.31;100822.28;4997957;28;96629;-52
2023/12/09 06:26:59;;;;;;;39.03;8.70;;;;;;;2.47;67.23;100813.34;4997947;28;97239;-52
2023/12/09 06:29:24;;;;;;;11.80;6.63;;;;;;;2.47;67.46;100810.59;4997388;28;97363;-52
2023/12/09 06:31:49;;;;;;;24.13;7.50;;;;;;;2.48;67.33;100812.16;4997169;28;99972;-52
2023/12/09 06:34:15;;;;;;;18.43;6.80;;;;;;;2.47;67.17;100808.66;4998422;28;97515;-53
2023/12/09 06:36:41;;;;;;;13.20;7.17;;;;;;;2.49;67.47;100810.91;4993712;28;97214;-52
2023/12/09 06:39:06;;;;;;;19.57;6.90;;;;;;;2.49;67.71;100811.69;4998721;28;97364;-52
2023/12/09 06:41:31;;;;;;;9.13;6.00;;;;;;;2.49;67.15;100819.09;4997176;28;108743;-52
2023/12/09 06:43:57;;;;;;;9.27;6.40;;;;;;;2.48;67.19;100820.34;4995466;28;97916;-53
2023/12/09 06:46:22;;;;;;;21.23;7.03;;;;;;;2.50;67.13;100817.91;4994635;28;97484;-52
2023/12/09 06:48:47;;;;;;;19.73;6.97;;;;;;;2.50;67.51;100823.38;4999236;28;107810;-52
2023/12/09 06:51:14;;;;;;;15.10;6.50;;;;;;;2.51;67.22;100824.88;4998119;28;105524;-52
2023/12/09 06:53:39;;;;;;;13.87;6.60;;;;;;;2.51;67.34;100817.44;4999518;28;97045;-52
2023/12/09 06:56:06;;;;;;;9.73;5.97;;;;;;;2.52;67.31;100824.44;4995383;28;98014;-52
2023/12/09 06:58:31;;;;;;;13.30;5.93;;;;;;;2.51;67.47;100825.63;4997515;28;97177;-52
2023/12/09 07:00:56;;;;;;;11.10;6.50;;;;;;;2.53;67.57;100823.19;4996216;28;99231;-52
2023/12/09 07:03:22;;;;;;;8.07;5.50;;;;;;;2.53;67.69;100816.97;4998846;28;96864;-52
2023/12/09 07:05:47;;;;;;;12.77;5.63;;;;;;;2.54;67.46;100818.50;4995912;28;97105;-52
2023/12/09 07:08:12;;;;;;;22.63;6.83;;;;;;;2.57;67.71;100812.88;4993416;28;97881;-52
2023/12/09 07:10:38;;;;;;;20.60;7.30;;;;;;;2.57;67.41;100817.59;4996650;28;97530;-52
2023/12/09 07:13:04;;;;;;;21.00;6.60;;;;;;;2.57;67.36;100811.38;4995015;28;96812;-52
2023/12/09 07:15:30;;;;;;;28.03;6.87;;;;;;;2.55;67.41;100822.72;4998261;28;97097;-52
2023/12/09 07:17:55;;;;;;;8.33;6.10;;;;;;;2.54;67.31;100811.06;4996349;28;97053;-52
2023/12/09 07:20:20;;;;;;;11.77;5.97;;;;;;;2.52;67.51;100810.00;4995093;28;106216;-52
2023/12/09 07:22:46;;;;;;;13.77;6.17;;;;;;;2.52;67.32;100807.28;5000493;28;96693;-52
2023/12/09 07:25:11;;;;;;;31.80;7.33;;;;;;;2.51;67.14;100808.47;4994337;28;97118;-52
2023/12/09 07:27:36;;;;;;;15.20;6.60;;;;;;;2.49;67.23;100803.47;4998117;28;97361;-52
2023/12/09 07:30:02;;;;;;;47.10;7.83;;;;;;;2.49;67.68;100810.91;4992619;28;110487;-52
2023/12/09 07:32:27;;;;;;;15.33;6.33;;;;;;;2.48;66.99;100801.97;4998199;28;97219;-52
2023/12/09 07:34:52;;;;;;;18.83;6.97;;;;;;;2.48;67.64;100801.97;4994660;28;97318;-52
2023/12/09 07:37:18;;;;;;;23.73;7.40;;;;;;;2.47;67.39;100795.00;4994723;28;111303;-52
2023/12/09 07:39:43;;;;;;;16.37;7.53;;;;;;;2.50;67.23;100806.97;4993887;28;109908;-52
2023/12/09 07:42:09;;;;;;;54.70;7.53;;;;;;;2.48;67.02;100799.22;4994288;28;97039;-52
2023/12/09 07:44:34;;;;;;;13.40;6.70;;;;;;;2.46;67.18;100796.19;4995603;28;97202;-52
2023/12/09 07:47:00;;;;;;;16.17;7.30;;;;;;;2.47;67.44;100778.59;4995998;28;112418;-52
2023/12/09 07:49:25;;;;;;;19.17;6.93;;;;;;;2.48;67.15;100780.09;4994610;28;96987;-52
2023/12/09 07:51:51;;;;;;;17.13;7.27;;;;;;;2.48;67.33;100782.84;4995764;28;96986;-52
2023/12/09 07:54:16;;;;;;;11.33;7.03;;;;;;;2.46;67.51;100779.81;4993993;28;97259;-52
2023/12/09 07:56:41;;;;;;;10.40;6.90;;;;;;;2.43;67.21;100778.00;4996044;28;97337;-52
2023/12/09 07:59:07;;;;;;;10.63;7.13;;;;;;;2.41;67.26;100774.97;4997005;28;98227;-52
2023/12/09 08:01:33;;;;;;;11.47;7.03;;;;;;;2.42;67.33;100770.25;4996318;28;96762;-52
2023/12/09 08:03:59;;;;;;;14.53;7.13;;;;;;;2.41;67.31;100780.44;4995687;28;96844;-52
2023/12/09 08:06:25;;;;;;;9.20;6.50;;;;;;;2.40;67.23;100761.78;4998150;28;97204;-52
2023/12/09 08:08:51;;;;;;;11.73;6.67;;;;;;;2.38;67.50;100764.97;5000077;28;97046;-52
2023/12/09 08:11:18;;;;;;;16.00;6.43;;;;;;;2.37;67.25;100759.97;4996365;28;98422;-52
2023/12/09 08:13:43;;;;;;;8.37;5.67;;;;;;;2.33;67.22;100757.34;4995427;28;96926;-52
2023/12/09 08:16:08;;;;;;;19.80;6.07;;;;;;;2.32;67.07;100768.72;4993355;28;111683;-52
2023/12/09 08:18:34;;;;;;;17.50;7.07;;;;;;;2.31;67.23;100751.59;4995340;28;109368;-52
2023/12/09 08:20:59;;;;;;;14.00;5.77;;;;;;;2.30;67.42;100752.06;4997101;28;98935;-52
2023/12/09 08:23:24;;;;;;;6.70;5.07;;;;;;;2.29;67.15;100789.50;4997575;28;97104;-52
2023/12/09 08:25:50;;;;;;;10.40;5.90;;;;;;;2.26;67.45;100757.69;4995279;28;97217;-52
2023/12/09 08:28:15;;;;;;;8.73;5.47;;;;;;;2.28;67.15;100759.94;4993637;28;97847;-52
2023/12/09 08:30:40;;;;;;;9.10;6.20;;;;;;;2.29;67.48;100769.63;4994461;28;96940;-52
2023/12/09 08:33:06;;;;;;;10.17;5.10;;;;;;;2.29;67.22;100764.19;4994312;28;104233;-52
2023/12/09 08:35:31;;;;;;;13.50;7.23;;;;;;;2.29;67.02;100758.72;4993886;28;97347;-52
2023/12/09 08:37:56;;;;;;;10.13;5.87;;;;;;;2.26;67.43;100765.88;4994551;28;97156;-52
2023/12/09 08:40:22;;;;;;;10.70;5.50;;;;;;;2.29;67.33;100766.91;4988212;28;96991;-52
2023/12/09 08:42:47;;;;;;;28.37;6.90;;;;;;;2.29;67.45;100767.66;4990706;28;96801;-52
2023/12/09 08:45:14;;;;;;;8.50;5.80;;;;;;;2.30;67.59;100766.47;4991024;28;98837;-52
2023/12/09 08:47:40;;;;;;;17.67;5.83;;;;;;;2.31;67.35;100767.97;4994891;28;97132;-52
2023/12/09 08:50:06;;;;;;;9.53;5.30;;;;;;;2.32;67.67;100772.22;4993381;28;97404;-52
2023/12/09 08:52:32;;;;;;;11.70;5.60;;;;;;;2.37;67.39;100776.34;4992682;28;97154;-51
2023/12/09 08:54:58;;;;;;;12.13;5.87;;;;;;;2.38;67.58;100759.50;4989251;28;96992;-52
2023/12/09 08:57:24;;;;;;;11.37;6.00;;;;;;;2.41;67.66;100768.75;4990968;28;97161;-52
2023/12/09 08:59:50;;;;;;;9.83;5.40;;;;;;;2.43;67.70;100764.38;4990326;28;96670;-52
2023/12/09 09:02:15;;;;;;;19.07;6.40;;;;;;;2.43;67.36;100758.91;4989271;28;96911;-52
2023/12/09 09:04:41;;;;;;;18.80;5.67;;;;;;;2.44;67.53;100754.94;4990708;28;98837;-52
2023/12/09 09:07:06;;;;;;;16.53;5.90;;;;;;;2.41;67.32;100749.66;4988408;28;98682;-52
2023/12/09 09:09:32;;;;;;;9.50;4.90;;;;;;;2.41;67.66;100757.84;4994450;28;97619;-52
2023/12/09 09:11:57;;;;;;;7.57;4.70;;;;;;;2.40;67.23;100751.63;4993131;28;97159;-52
2023/12/09 09:14:23;;;;;;;7.53;4.50;;;;;;;2.42;67.57;100751.16;4993796;28;97306;-52
2023/12/09 09:16:49;;;;;;;14.00;4.97;;;;;;;2.43;67.31;100750.72;4993406;28;97263;-52
2023/12/09 09:19:14;;;;;;;8.27;5.10;;;;;;;2.44;67.68;100746.00;4995147;28;96736;-52
2023/12/09 09:21:40;;;;;;;11.63;5.07;;;;;;;2.47;67.43;100743.13;4994405;28;97564;-51
2023/12/09 09:24:09;;;;;;;8.33;4.40;;;;;;;2.45;67.32;100744.78;4991747;28;97241;-52
2023/12/09 09:26:34;;;;;;;9.27;4.63;;;;;;;2.48;67.47;100741.16;4995805;28;97408;-52
2023/12/09 09:29:00;;;;;;;6.57;4.90;;;;;;;2.47;67.81;100737.66;4994620;28;97355;-52
2023/12/09 09:31:25;;;;;;;10.20;5.40;;;;;;;2.49;67.68;100737.19;4996307;28;97780;-52
2023/12/09 09:33:51;;;;;;;20.50;6.20;;;;;;;2.49;67.80;100737.94;4994315;28;97424;-52
2023/12/09 09:36:17;;;;;;;15.83;6.50;;;;;;;2.54;67.50;100731.88;4996402;28;97064;-52
2023/12/09 09:38:43;;;;;;;9.17;5.87;;;;;;;2.57;67.57;100735.66;4994626;28;96832;-51
2023/12/09 09:41:16;;;;;;;10.07;5.50;;;;;;;2.62;67.78;100731.53;4999540;28;96725;-52
2023/12/09 09:43:47;;;;;;;10.03;6.27;;;;;;;2.66;67.92;100723.97;4993801;28;97948;-52
2023/12/09 09:46:14;;;;;;;11.40;6.50;;;;;;;2.72;67.84;100724.84;4995009;28;97163;-52
2023/12/09 09:48:44;;;;;;;11.30;5.70;;;;;;;2.79;67.89;100713.59;4998589;28;98694;-52
2023/12/09 09:51:14;;;;;;;9.97;5.50;;;;;;;2.82;68.05;100713.44;4996327;28;97552;-52
2023/12/09 09:54:29;;;;;;;8.33;5.30;;;;;;;2.85;67.93;100711.75;4995629;28;97918;-52
2023/12/09 09:56:58;;;;;;;10.77;7.07;;;;;;;2.92;67.89;100711.44;4992033;28;99143;-52
2023/12/09 09:59:24;;;;;;;14.23;8.07;;;;;;;3.04;68.10;100707.72;4996298;28;96775;-52
2023/12/09 10:01:49;;;;;;;18.00;7.07;;;;;;;3.12;68.15;100708.88;4996693;28;97391;-52
2023/12/09 10:04:15;;;;;;;13.03;7.30;;;;;;;3.19;68.45;100686.69;4993774;28;97535;-52
2023/12/09 10:06:42;;;;;;;9.57;7.37;;;;;;;3.26;68.40;100691.81;4993970;28;114871;-52
2023/12/09 10:09:07;;;;;;;13.37;5.40;;;;;;;3.32;68.05;100685.25;4995979;28;96745;-52
2023/12/09 10:11:32;;;;;;;10.73;6.40;;;;;;;3.41;68.44;100687.16;4994012;28;97593;-52
2023/12/09 10:13:58;;;;;;;9.23;5.70;;;;;;;3.47;68.43;100671.59;4992610;28;96899;-51
2023/12/09 10:16:23;;;;;;;7.47;5.43;;;;;;;3.53;68.23;100667.03;4993990;28;97241;-51
2023/12/09 10:18:49;;;;;;;10.67;5.90;;;;;;;3.59;68.14;100667.13;4995304;28;98322;-52
2023/12/09 10:21:15;;;;;;;6.20;4.80;;;;;;;3.64;68.23;100658.28;4996957;28;97228;-52
2023/12/09 10:23:41;;;;;;;9.60;5.20;;;;;;;3.68;68.23;100645.16;4996725;28;98053;-52
2023/12/09 10:26:08;;;;;;;6.63;4.90;;;;;;;3.72;67.93;100635.56;4996030;28;98339;-52
2023/12/09 10:28:34;;;;;;;8.07;5.40;;;;;;;3.72;68.32;100643.78;4997343;28;97327;-52
2023/12/09 10:31:00;;;;;;;6.07;4.50;;;;;;;3.72;68.35;100626.59;4996689;28;97647;-52
2023/12/09 10:33:29;;;;;;;8.03;5.07;;;;;;;3.76;68.48;100629.91;4995415;28;97127;-52
2023/12/09 10:35:56;;;;;;;8.60;5.13;;;;;;;3.82;68.51;100630.75;4996206;28;97386;-52
2023/12/09 10:38:22;;;;;;;7.50;5.03;;;;;;;3.90;68.59;100631.91;4995502;28;98357;-52
2023/12/09 10:40:49;;;;;;;7.87;5.70;;;;;;;3.97;68.58;100618.59;4994130;28;98560;-51
2023/12/09 10:43:14;;;;;;;12.47;5.10;;;;;;;4.06;68.49;100636.91;4994207;28;98002;-52
2023/12/09 10:45:39;;;;;;;11.90;4.70;;;;;;;4.17;68.72;100617.16;4997897;28;98503;-53
2023/12/09 10:48:06;;;;;;;11.90;4.47;;;;;;;4.29;68.72;100616.91;4995279;28;97949;-53
2023/12/09 10:50:33;;;;;;;5.00;3.70;;;;;;;4.44;68.69;100617.63;4996259;28;97024;-53
2023/12/09 10:52:58;;;;;;;8.10;4.33;;;;;;;4.59;68.41;100604.66;4994908;28;101091;-53
2023/12/09 10:55:24;;;;;;;8.97;4.30;;;;;;;4.68;68.29;100596.34;4992576;28;98244;-53
2023/12/09 10:57:50;;;;;;;8.23;4.37;;;;;;;4.76;68.16;100596.69;4994455;28;97281;-53
2023/12/09 11:00:16;;;;;;;9.57;5.03;;;;;;;4.80;67.97;100589.03;4995644;28;96804;-53
2023/12/09 11:02:43;;;;;;;7.27;5.03;;;;;;;4.81;68.08;100579.59;4995632;28;97195;-53
2023/12/09 11:05:09;;;;;;;9.63;4.50;;;;;;;4.85;68.05;100574.66;4994710;28;97228;-53
2023/12/09 11:07:36;;;;;;;8.03;4.10;;;;;;;4.88;68.05;100570.97;4994326;28;97035;-53
2023/12/09 11:10:02;;;;;;;8.70;4.23;;;;;;;4.89;68.15;100569.00;4997090;28;96962;-53
2023/12/09 11:12:30;;;;;;;11.03;5.03;;;;;;;4.90;68.05;100554.78;4993624;28;97144;-53
2023/12/09 11:15:04;;;;;;;7.10;4.87;;;;;;;4.94;68.00;100541.63;4992492;28;97738;-53